createdAt,value
2018-11-28T00:00:47.069Z,102273.24
2018-11-28T00:01:47.330Z,102272.98
2018-11-28T00:02:47.864Z,102272.41
2018-11-28T00:03:48.371Z,102272.05
2018-11-28T00:04:48.828Z,102271.82
2018-11-28T00:05:49.400Z,102271.39
2018-11-28T00:06:49.680Z,102271.04
2018-11-28T00:07:49.940Z,102270.97
2018-11-28T00:08:50.245Z,102270.38
2018-11-28T00:09:51.054Z,102269.78
2018-11-28T00:10:51.367Z,102269.62
2018-11-28T00:11:51.768Z,102269.28
2018-11-28T00:12:52.046Z,102268.55
2018-11-28T00:13:52.656Z,102268.30
2018-11-28T00:14:53.012Z,102267.98
2018-11-28T00:15:53.812Z,102267.64
2018-11-28T00:16:02.394Z,102264.19
2018-11-28T00:17:03.069Z,102258.16
2018-11-28T00:18:03.607Z,102258.16
2018-11-28T00:19:04.139Z,102258.66
2018-11-28T00:20:04.524Z,102258.66
2018-11-28T00:21:05.448Z,102259.00
2018-11-28T00:22:05.840Z,102259.00
2018-11-28T00:23:06.095Z,102258.60
2018-11-28T00:24:06.562Z,102258.34
2018-11-28T00:25:06.982Z,102258.41
2018-11-28T00:26:07.535Z,102258.74
2018-11-28T00:27:07.774Z,102258.91
2018-11-28T00:28:08.282Z,102259.35
2018-11-28T00:29:08.609Z,102259.75
2018-11-28T00:30:08.919Z,102259.49
2018-11-28T00:31:09.370Z,102259.56
2018-11-28T00:32:09.850Z,102259.50
2018-11-28T00:33:10.159Z,102259.67
2018-11-28T00:34:10.421Z,102259.41
2018-11-28T00:35:10.691Z,102259.91
2018-11-28T00:36:11.019Z,102259.31
2018-11-28T00:37:11.673Z,102258.89
2018-11-28T00:38:12.327Z,102258.16
2018-11-28T00:39:12.914Z,102257.49
2018-11-28T00:40:13.288Z,102257.33
2018-11-28T00:41:13.904Z,102256.83
2018-11-28T00:42:14.257Z,102256.55
2018-11-28T00:43:14.820Z,102256.38
2018-11-28T00:44:15.168Z,102255.72
2018-11-28T00:45:15.533Z,102254.88
2018-11-28T00:46:15.880Z,102254.05
2018-11-28T00:47:16.322Z,102253.64
2018-11-28T00:48:16.572Z,102252.81
2018-11-28T00:49:16.896Z,102252.57
2018-11-28T00:50:17.171Z,102251.57
2018-11-28T00:51:17.934Z,102250.91
2018-11-28T00:52:17.471Z,102250.33
2018-11-28T00:53:18.787Z,102249.50
2018-11-28T00:54:19.093Z,102248.83
2018-11-28T00:55:19.622Z,102247.83
2018-11-28T00:56:19.944Z,102247.16
2018-11-28T00:57:20.499Z,102245.80
2018-11-28T00:58:21.096Z,102245.39
2018-11-28T00:59:22.970Z,102244.80
2018-11-28T01:00:21.227Z,102244.29
2018-11-28T01:01:23.087Z,102243.78
2018-11-28T01:01:31.493Z,102232.64
2018-11-28T01:02:32.725Z,102238.10
2018-11-28T01:03:33.298Z,102237.80
2018-11-28T01:04:33.635Z,102236.84
2018-11-28T01:05:33.942Z,102236.02
2018-11-28T01:06:34.235Z,102235.44
2018-11-28T01:07:34.841Z,102234.74
2018-11-28T01:08:35.652Z,102234.09
2018-11-28T01:09:36.238Z,102234.06
2018-11-28T01:10:36.686Z,102233.73
2018-11-28T01:11:37.244Z,102234.23
2018-11-28T01:12:37.678Z,102233.98
2018-11-28T01:13:38.158Z,102233.97
2018-11-28T01:14:38.577Z,102234.22
2018-11-28T01:15:38.716Z,102234.69
2018-11-28T01:16:38.979Z,102234.88
2018-11-28T01:17:39.332Z,102235.03
2018-11-28T01:18:39.816Z,102235.52
2018-11-28T01:19:40.087Z,102235.73
2018-11-28T01:20:40.480Z,102236.00
2018-11-28T01:21:40.862Z,102235.89
2018-11-28T01:22:41.167Z,102236.21
2018-11-28T01:23:41.846Z,102236.30
2018-11-28T01:24:42.126Z,102236.36
2018-11-28T01:25:42.472Z,102236.34
2018-11-28T01:26:42.750Z,102236.52
2018-11-28T01:27:43.090Z,102237.07
2018-11-28T01:28:46.421Z,102237.23
2018-11-28T01:29:43.435Z,102237.20
2018-11-28T01:30:44.775Z,102237.86
2018-11-28T01:31:45.099Z,102238.27
2018-11-28T01:32:45.515Z,102239.14
2018-11-28T01:33:46.096Z,102239.36
2018-11-28T01:34:46.704Z,102239.74
2018-11-28T01:35:47.086Z,102240.75
2018-11-28T01:36:47.386Z,102241.79
2018-11-28T01:37:47.873Z,102243.02
2018-11-28T01:38:48.592Z,102243.90
2018-11-28T01:39:48.961Z,102245.12
2018-11-28T01:40:49.297Z,102245.74
2018-11-28T01:41:49.665Z,102246.80
2018-11-28T01:42:49.920Z,102247.17
2018-11-28T01:43:50.379Z,102248.33
2018-11-28T01:44:50.725Z,102248.94
2018-11-28T01:45:51.135Z,102249.58
2018-11-28T01:46:51.741Z,102250.23
2018-11-28T01:46:59.828Z,102266.23
2018-11-28T01:48:01.287Z,102265.84
2018-11-28T01:49:01.641Z,102266.23
2018-11-28T01:50:01.986Z,102265.91
2018-11-28T01:51:02.815Z,102266.00
2018-11-28T01:52:03.392Z,102266.00
2018-11-28T01:53:03.426Z,102266.00
2018-11-28T01:54:03.688Z,102266.83
2018-11-28T01:55:04.006Z,102267.07
2018-11-28T01:56:04.716Z,102266.67
2018-11-28T01:57:04.975Z,102266.91
2018-11-28T01:58:05.536Z,102266.39
2018-11-28T01:59:05.974Z,102266.49
2018-11-28T02:00:06.235Z,102266.89
2018-11-28T02:01:06.600Z,102266.97
2018-11-28T02:02:06.953Z,102266.48
2018-11-28T02:03:07.282Z,102266.38
2018-11-28T02:04:07.737Z,102265.89
2018-11-28T02:05:07.536Z,102265.36
2018-11-28T02:06:09.022Z,102265.27
2018-11-28T02:07:09.359Z,102265.11
2018-11-28T02:08:09.384Z,102264.62
2018-11-28T02:09:09.725Z,102264.76
2018-11-28T02:10:10.042Z,102264.94
2018-11-28T02:11:10.397Z,102265.17
2018-11-28T02:12:10.739Z,102264.75
2018-11-28T02:13:11.111Z,102264.40
2018-11-28T02:14:11.443Z,102263.63
2018-11-28T02:15:11.933Z,102263.27
2018-11-28T02:16:12.261Z,102262.69
2018-11-28T02:17:12.515Z,102262.66
2018-11-28T02:18:13.156Z,102262.99
2018-11-28T02:19:13.803Z,102262.59
2018-11-28T02:20:14.176Z,102262.59
2018-11-28T02:21:14.604Z,102262.84
2018-11-28T02:22:15.167Z,102263.34
2018-11-28T02:23:15.848Z,102263.55
2018-11-28T02:24:16.248Z,102263.80
2018-11-28T02:25:16.775Z,102263.78
2018-11-28T02:26:17.087Z,102264.53
2018-11-28T02:27:17.435Z,102264.51
2018-11-28T02:28:17.880Z,102264.83
2018-11-28T02:29:18.149Z,102264.37
2018-11-28T02:30:18.629Z,102264.39
2018-11-28T02:31:18.927Z,102264.05
2018-11-28T02:32:19.304Z,102263.92
2018-11-28T02:32:27.650Z,102257.92
2018-11-28T02:33:28.897Z,102257.69
2018-11-28T02:34:29.273Z,102257.52
2018-11-28T02:35:29.781Z,102257.59
2018-11-28T02:36:30.070Z,102257.07
2018-11-28T02:37:30.639Z,102256.91
2018-11-28T02:38:31.285Z,102256.38
2018-11-28T02:39:31.620Z,102256.33
2018-11-28T02:40:32.029Z,102255.73
2018-11-28T02:41:32.376Z,102255.70
2018-11-28T02:42:32.803Z,102255.55
2018-11-28T02:43:33.107Z,102255.72
2018-11-28T02:44:33.501Z,102255.09
2018-11-28T02:45:33.992Z,102254.77
2018-11-28T02:46:34.696Z,102253.41
2018-11-28T02:47:35.230Z,102253.19
2018-11-28T02:48:35.942Z,102252.41
2018-11-28T02:49:36.346Z,102251.72
2018-11-28T02:50:36.924Z,102251.70
2018-11-28T02:51:37.996Z,102250.95
2018-11-28T02:52:36.552Z,102250.44
2018-11-28T02:53:38.108Z,102249.76
2018-11-28T02:54:38.445Z,102249.97
2018-11-28T02:55:38.862Z,102249.55
2018-11-28T02:56:39.524Z,102249.53
2018-11-28T02:57:39.919Z,102249.17
2018-11-28T02:58:40.433Z,102248.66
2018-11-28T02:59:40.814Z,102248.84
2018-11-28T03:00:41.218Z,102248.39
2018-11-28T03:01:41.785Z,102248.20
2018-11-28T03:02:42.235Z,102248.02
2018-11-28T03:03:42.883Z,102248.34
2018-11-28T03:04:43.271Z,102248.25
2018-11-28T03:05:43.575Z,102248.50
2018-11-28T03:06:43.814Z,102248.70
2018-11-28T03:07:44.262Z,102248.39
2018-11-28T03:08:44.772Z,102248.09
2018-11-28T03:09:45.005Z,102247.34
2018-11-28T03:10:45.468Z,102247.02
2018-11-28T03:11:45.777Z,102246.49
2018-11-28T03:12:46.164Z,102246.50
2018-11-28T03:13:46.638Z,102245.48
2018-11-28T03:14:46.983Z,102245.45
2018-11-28T03:15:47.428Z,102244.97
2018-11-28T03:16:47.786Z,102245.03
2018-11-28T03:17:48.116Z,102244.44
2018-11-28T03:18:48.651Z,102244.44
2018-11-28T03:18:57.067Z,102242.45
2018-11-28T03:19:58.420Z,102241.86
2018-11-28T03:20:59.144Z,102242.45
2018-11-28T03:21:59.588Z,102242.36
2018-11-28T03:22:59.940Z,102242.62
2018-11-28T03:24:00.344Z,102242.62
2018-11-28T03:25:00.668Z,102242.19
2018-11-28T03:26:01.477Z,102242.52
2018-11-28T03:27:01.884Z,102242.03
2018-11-28T03:28:02.570Z,102242.10
2018-11-28T03:29:02.941Z,102242.11
2018-11-28T03:30:03.530Z,102241.66
2018-11-28T03:31:03.911Z,102240.90
2018-11-28T03:32:04.508Z,102240.64
2018-11-28T03:33:04.911Z,102241.05
2018-11-28T03:34:05.346Z,102240.97
2018-11-28T03:35:05.939Z,102241.28
2018-11-28T03:36:06.330Z,102241.59
2018-11-28T03:37:06.712Z,102241.14
2018-11-28T03:38:07.189Z,102241.62
2018-11-28T03:39:07.609Z,102241.94
2018-11-28T03:40:07.963Z,102242.02
2018-11-28T03:41:08.949Z,102242.42
2018-11-28T03:42:09.272Z,102242.41
2018-11-28T03:43:09.744Z,102242.38
2018-11-28T03:44:10.137Z,102242.46
2018-11-28T03:45:10.453Z,102242.03
2018-11-28T03:46:10.889Z,102242.25
2018-11-28T03:47:11.363Z,102242.59
2018-11-28T03:48:11.901Z,102243.00
2018-11-28T03:49:12.750Z,102243.14
2018-11-28T03:50:13.002Z,102243.64
2018-11-28T03:51:13.300Z,102244.05
2018-11-28T03:52:13.571Z,102244.61
2018-11-28T03:53:13.916Z,102244.88
2018-11-28T03:54:14.292Z,102244.52
2018-11-28T03:55:14.836Z,102244.77
2018-11-28T03:56:15.118Z,102245.53
2018-11-28T03:57:15.399Z,102246.09
2018-11-28T03:58:15.658Z,102246.59
2018-11-28T03:59:15.995Z,102246.66
2018-11-28T04:00:16.743Z,102247.16
2018-11-28T04:01:17.042Z,102247.23
2018-11-28T04:02:17.513Z,102247.56
2018-11-28T04:02:26.556Z,102259.94
2018-11-28T04:03:27.889Z,102259.20
2018-11-28T04:04:28.320Z,102258.70
2018-11-28T04:05:28.678Z,102258.11
2018-11-28T04:06:29.235Z,102257.02
2018-11-28T04:07:29.621Z,102257.02
2018-11-28T04:08:30.301Z,102256.61
2018-11-28T04:09:30.922Z,102256.28
2018-11-28T04:10:31.260Z,102256.02
2018-11-28T04:11:31.685Z,102256.02
2018-11-28T04:12:32.020Z,102255.75
2018-11-28T04:13:32.461Z,102256.52
2018-11-28T04:14:32.875Z,102256.66
2018-11-28T04:15:33.283Z,102256.73
2018-11-28T04:16:33.892Z,102256.84
2018-11-28T04:17:34.358Z,102257.17
2018-11-28T04:18:34.771Z,102257.07
2018-11-28T04:19:35.245Z,102257.07
2018-11-28T04:20:35.130Z,102256.81
2018-11-28T04:21:36.618Z,102257.23
2018-11-28T04:22:36.977Z,102256.64
2018-11-28T04:23:37.371Z,102256.48
2018-11-28T04:24:37.856Z,102256.41
2018-11-28T04:25:38.220Z,102256.17
2018-11-28T04:26:38.543Z,102255.17
2018-11-28T04:27:39.057Z,102254.57
2018-11-28T04:28:39.458Z,102254.00
2018-11-28T04:29:38.950Z,102253.27
2018-11-28T04:30:40.369Z,102252.44
2018-11-28T04:31:40.841Z,102252.20
2018-11-28T04:32:41.382Z,102251.44
2018-11-28T04:33:41.800Z,102251.11
2018-11-28T04:34:42.293Z,102251.02
2018-11-28T04:35:42.707Z,102251.02
2018-11-28T04:36:43.227Z,102250.59
2018-11-28T04:37:43.646Z,102250.33
2018-11-28T04:38:44.256Z,102250.39
2018-11-28T04:39:44.675Z,102249.83
2018-11-28T04:40:45.364Z,102249.57
2018-11-28T04:41:46.165Z,102249.14
2018-11-28T04:42:46.517Z,102248.81
2018-11-28T04:43:46.746Z,102248.31
2018-11-28T04:44:47.107Z,102248.89
2018-11-28T04:45:47.463Z,102248.72
2018-11-28T04:46:47.834Z,102248.80
2018-11-28T04:47:48.287Z,102249.12
2018-11-28T04:48:48.646Z,102249.06
2018-11-28T04:48:57.001Z,102253.09
2018-11-28T04:49:58.159Z,102252.70
2018-11-28T04:50:58.520Z,102252.86
2018-11-28T04:51:58.954Z,102252.86
2018-11-28T04:52:59.435Z,102253.03
2018-11-28T04:53:59.808Z,102253.20
2018-11-28T04:55:00.226Z,102253.10
2018-11-28T04:56:00.643Z,102252.67
2018-11-28T04:57:00.972Z,102252.67
2018-11-28T04:58:01.458Z,102252.34
2018-11-28T04:59:01.806Z,102252.67
2018-11-28T05:00:02.258Z,102252.27
2018-11-28T05:01:02.719Z,102252.53
2018-11-28T05:02:03.339Z,102251.86
2018-11-28T05:03:03.728Z,102252.09
2018-11-28T05:04:04.110Z,102251.93
2018-11-28T05:05:04.988Z,102251.09
2018-11-28T05:06:05.094Z,102250.36
2018-11-28T05:07:05.358Z,102249.87
2018-11-28T05:08:05.605Z,102249.70
2018-11-28T05:09:06.120Z,102248.77
2018-11-28T05:10:07.082Z,102248.87
2018-11-28T05:11:07.594Z,102248.87
2018-11-28T05:12:08.027Z,102248.87
2018-11-28T05:13:08.453Z,102249.03
2018-11-28T05:14:08.889Z,102249.80
2018-11-28T05:15:09.566Z,102250.39
2018-11-28T05:16:10.073Z,102251.45
2018-11-28T05:17:10.468Z,102252.29
2018-11-28T05:18:10.876Z,102253.02
2018-11-28T05:19:11.509Z,102253.36
2018-11-28T05:20:11.982Z,102253.50
2018-11-28T05:21:12.460Z,102253.58
2018-11-28T05:22:13.133Z,102253.41
2018-11-28T05:23:13.835Z,102253.41
2018-11-28T05:24:14.617Z,102253.17
2018-11-28T05:25:15.125Z,102253.41
2018-11-28T05:26:15.152Z,102253.23
2018-11-28T05:27:15.652Z,102252.74
2018-11-28T05:28:16.176Z,102252.34
2018-11-28T05:29:16.928Z,102251.67
2018-11-28T05:30:17.333Z,102251.77
2018-11-28T05:31:17.925Z,102251.60
2018-11-28T05:32:18.845Z,102251.60
2018-11-28T05:32:27.815Z,102251.30
2018-11-28T05:33:29.113Z,102250.87
2018-11-28T05:34:29.540Z,102251.55
2018-11-28T05:35:29.987Z,102251.38
2018-11-28T05:36:30.385Z,102251.55
2018-11-28T05:37:30.737Z,102251.48
2018-11-28T05:38:31.248Z,102251.64
2018-11-28T05:39:31.798Z,102251.98
2018-11-28T05:40:32.134Z,102252.14
2018-11-28T05:41:32.478Z,102252.05
2018-11-28T05:42:32.859Z,102252.21
2018-11-28T05:43:33.183Z,102252.71
2018-11-28T05:44:33.733Z,102252.78
2018-11-28T05:45:34.261Z,102252.45
2018-11-28T05:46:34.803Z,102253.02
2018-11-28T05:47:35.342Z,102253.27
2018-11-28T05:48:35.872Z,102253.53
2018-11-28T05:49:36.299Z,102253.59
2018-11-28T05:50:36.905Z,102253.84
2018-11-28T05:51:37.269Z,102254.17
2018-11-28T05:52:37.799Z,102254.58
2018-11-28T05:53:38.145Z,102255.14
2018-11-28T05:54:38.570Z,102255.72
2018-11-28T05:55:38.989Z,102255.98
2018-11-28T05:56:39.770Z,102255.89
2018-11-28T05:57:39.274Z,102256.05
2018-11-28T05:58:40.743Z,102255.80
2018-11-28T05:59:41.150Z,102255.56
2018-11-28T06:00:41.525Z,102255.13
2018-11-28T06:01:41.031Z,102255.20
2018-11-28T06:02:42.740Z,102255.05
2018-11-28T06:03:43.101Z,102255.28
2018-11-28T06:04:43.665Z,102256.11
2018-11-28T06:05:44.085Z,102256.02
2018-11-28T06:06:44.456Z,102255.52
2018-11-28T06:07:44.905Z,102256.09
2018-11-28T06:08:45.445Z,102256.25
2018-11-28T06:09:45.923Z,102256.52
2018-11-28T06:10:46.257Z,102256.42
2018-11-28T06:11:46.652Z,102256.42
2018-11-28T06:12:47.100Z,102256.84
2018-11-28T06:13:47.613Z,102256.68
2018-11-28T06:14:48.009Z,102256.84
2018-11-28T06:15:48.431Z,102257.18
2018-11-28T06:16:48.964Z,102257.34
2018-11-28T06:17:49.505Z,102258.01
2018-11-28T06:18:50.394Z,102258.51
2018-11-28T06:18:58.784Z,102267.84
2018-11-28T06:20:00.162Z,102267.42
2018-11-28T06:21:01.056Z,102267.42
2018-11-28T06:22:01.487Z,102268.08
2018-11-28T06:23:01.914Z,102267.91
2018-11-28T06:24:02.516Z,102268.25
2018-11-28T06:25:02.993Z,102267.81
2018-11-28T06:26:03.917Z,102267.66
2018-11-28T06:27:04.415Z,102267.39
2018-11-28T06:28:04.729Z,102267.22
2018-11-28T06:29:05.219Z,102267.06
2018-11-28T06:30:05.841Z,102266.39
2018-11-28T06:31:06.226Z,102265.73
2018-11-28T06:32:06.572Z,102265.39
2018-11-28T06:33:05.990Z,102265.00
2018-11-28T06:34:07.118Z,102264.23
2018-11-28T06:35:07.678Z,102264.07
2018-11-28T06:36:08.011Z,102263.73
2018-11-28T06:37:08.257Z,102263.48
2018-11-28T06:38:08.614Z,102262.88
2018-11-28T06:39:09.044Z,102262.72
2018-11-28T06:40:09.381Z,102261.98
2018-11-28T06:41:09.738Z,102261.88
2018-11-28T06:42:10.265Z,102261.48
2018-11-28T06:43:10.615Z,102261.25
2018-11-28T06:44:11.085Z,102261.01
2018-11-28T06:45:11.445Z,102260.73
2018-11-28T06:46:11.818Z,102260.34
2018-11-28T06:47:12.066Z,102259.77
2018-11-28T06:48:12.445Z,102259.92
2018-11-28T06:49:12.993Z,102259.86
2018-11-28T06:50:13.490Z,102260.05
2018-11-28T06:51:13.889Z,102260.21
2018-11-28T06:52:14.642Z,102260.20
2018-11-28T06:53:15.071Z,102260.56
2018-11-28T06:54:15.795Z,102261.05
2018-11-28T06:55:16.047Z,102261.08
2018-11-28T06:56:16.297Z,102261.50
2018-11-28T06:57:16.678Z,102261.70
2018-11-28T06:58:16.999Z,102261.19
2018-11-28T06:59:17.491Z,102261.55
2018-11-28T07:00:18.192Z,102262.30
2018-11-28T07:01:18.729Z,102262.48
2018-11-28T07:02:19.136Z,102263.10
2018-11-28T07:03:19.538Z,102263.18
2018-11-28T07:04:19.959Z,102263.89
2018-11-28T07:05:20.413Z,102264.57
2018-11-28T07:05:28.816Z,102281.78
2018-11-28T07:06:30.204Z,102281.22
2018-11-28T07:07:31.086Z,102280.73
2018-11-28T07:08:31.383Z,102280.55
2018-11-28T07:09:31.690Z,102280.45
2018-11-28T07:10:32.110Z,102280.63
2018-11-28T07:11:32.680Z,102280.55
2018-11-28T07:12:33.014Z,102280.72
2018-11-28T07:13:33.367Z,102281.14
2018-11-28T07:14:33.822Z,102281.14
2018-11-28T07:15:34.193Z,102281.41
2018-11-28T07:16:34.592Z,102281.41
2018-11-28T07:17:35.187Z,102281.47
2018-11-28T07:18:35.647Z,102282.00
2018-11-28T07:19:36.009Z,102282.16
2018-11-28T07:20:36.599Z,102282.33
2018-11-28T07:21:36.953Z,102282.66
2018-11-28T07:22:37.305Z,102283.33
2018-11-28T07:23:37.323Z,102283.50
2018-11-28T07:24:37.668Z,102284.09
2018-11-28T07:25:38.126Z,102284.66
2018-11-28T07:26:38.577Z,102285.41
2018-11-28T07:27:44.803Z,102285.75
2018-11-28T07:28:38.475Z,102286.73
2018-11-28T07:29:39.940Z,102287.50
2018-11-28T07:30:39.299Z,102288.16
2018-11-28T07:31:40.987Z,102289.02
2018-11-28T07:32:41.319Z,102289.59
2018-11-28T07:33:41.806Z,102290.44
2018-11-28T07:34:42.327Z,102292.36
2018-11-28T07:35:42.698Z,102292.80
2018-11-28T07:36:43.254Z,102294.05
2018-11-28T07:37:43.530Z,102294.97
2018-11-28T07:38:43.873Z,102295.55
2018-11-28T07:39:44.254Z,102296.41
2018-11-28T07:40:44.724Z,102297.33
2018-11-28T07:41:45.084Z,102298.17
2018-11-28T07:42:45.831Z,102298.97
2018-11-28T07:43:46.344Z,102299.48
2018-11-28T07:44:46.802Z,102300.73
2018-11-28T07:45:47.405Z,102301.34
2018-11-28T07:46:46.868Z,102301.19
2018-11-28T07:47:48.323Z,102301.77
2018-11-28T07:48:48.647Z,102302.31
2018-11-28T07:49:49.198Z,102302.33
2018-11-28T07:50:49.659Z,102302.94
2018-11-28T07:51:50.100Z,102302.47
2018-11-28T07:52:50.495Z,102302.58
2018-11-28T07:52:58.849Z,102300.49
2018-11-28T07:54:00.362Z,102300.06
2018-11-28T07:55:00.796Z,102300.33
2018-11-28T07:56:01.268Z,102300.26
2018-11-28T07:57:01.714Z,102300.35
2018-11-28T07:58:02.119Z,102300.17
2018-11-28T07:59:02.583Z,102300.53
2018-11-28T08:00:03.026Z,102300.13
2018-11-28T08:01:03.498Z,102300.72
2018-11-28T08:02:03.852Z,102300.87
2018-11-28T08:03:04.307Z,102301.33
2018-11-28T08:04:04.706Z,102301.25
2018-11-28T08:05:05.250Z,102301.59
2018-11-28T08:06:05.637Z,102301.95
2018-11-28T08:07:05.682Z,102302.13
2018-11-28T08:08:06.299Z,102302.47
2018-11-28T08:09:06.719Z,102302.48
2018-11-28T08:10:07.200Z,102302.78
2018-11-28T08:11:07.652Z,102302.72
2018-11-28T08:12:08.032Z,102303.09
2018-11-28T08:13:08.482Z,102302.86
2018-11-28T08:14:08.489Z,102303.29
2018-11-28T08:15:08.947Z,102302.75
2018-11-28T08:16:09.322Z,102303.38
2018-11-28T08:17:09.782Z,102303.23
2018-11-28T08:18:10.282Z,102303.35
2018-11-28T08:19:10.638Z,102303.97
2018-11-28T08:20:11.062Z,102303.92
2018-11-28T08:21:11.475Z,102304.23
2018-11-28T08:22:11.839Z,102304.44
2018-11-28T08:23:12.390Z,102304.47
2018-11-28T08:24:12.791Z,102304.61
2018-11-28T08:25:13.591Z,102304.23
2018-11-28T08:26:14.272Z,102304.03
2018-11-28T08:27:14.759Z,102304.09
2018-11-28T08:28:15.223Z,102304.25
2018-11-28T08:29:14.790Z,102304.03
2018-11-28T08:30:15.113Z,102304.94
2018-11-28T08:31:16.557Z,102305.51
2018-11-28T08:32:17.065Z,102305.65
2018-11-28T08:33:17.382Z,102306.45
2018-11-28T08:34:17.819Z,102307.40
2018-11-28T08:35:18.272Z,102307.88
2018-11-28T08:36:19.217Z,102308.16
2018-11-28T08:37:19.715Z,102308.64
2018-11-28T08:38:20.282Z,102309.27
2018-11-28T08:39:20.659Z,102310.41
2018-11-28T08:39:29.057Z,102316.58
2018-11-28T08:40:30.453Z,102316.48
2018-11-28T08:41:30.857Z,102317.41
2018-11-28T08:42:31.222Z,102317.50
2018-11-28T08:43:31.842Z,102318.16
2018-11-28T08:44:32.513Z,102318.19
2018-11-28T08:45:32.961Z,102317.94
2018-11-28T08:46:33.376Z,102317.92
2018-11-28T08:47:34.066Z,102317.70
2018-11-28T08:48:34.452Z,102317.52
2018-11-28T08:49:33.802Z,102317.47
2018-11-28T08:50:35.176Z,102317.14
2018-11-28T08:51:37.367Z,102317.05
2018-11-28T08:52:35.537Z,102317.24
2018-11-28T08:53:35.898Z,102316.81
2018-11-28T08:54:37.369Z,102316.08
2018-11-28T08:55:37.821Z,102315.41
2018-11-28T08:56:38.276Z,102314.95
2018-11-28T08:57:38.876Z,102314.18
2018-11-28T08:58:39.263Z,102313.97
2018-11-28T08:59:38.659Z,102313.39
2018-11-28T09:00:40.280Z,102312.58
2018-11-28T09:01:40.684Z,102312.16
2018-11-28T09:02:39.975Z,102312.17
2018-11-28T09:03:41.474Z,102311.59
2018-11-28T09:04:42.158Z,102311.02
2018-11-28T09:05:42.362Z,102310.95
2018-11-28T09:06:42.784Z,102310.57
2018-11-28T09:07:43.151Z,102310.66
2018-11-28T09:08:43.754Z,102311.23
2018-11-28T09:09:44.210Z,102311.50
2018-11-28T09:10:44.875Z,102311.77
2018-11-28T09:11:45.263Z,102312.94
2018-11-28T09:12:45.162Z,102313.77
2018-11-28T09:13:46.575Z,102314.63
2018-11-28T09:14:47.164Z,102314.81
2018-11-28T09:15:49.121Z,102314.65
2018-11-28T09:16:48.224Z,102315.16
2018-11-28T09:17:48.849Z,102315.84
2018-11-28T09:18:49.250Z,102316.41
2018-11-28T09:19:49.894Z,102317.52
2018-11-28T09:20:50.595Z,102318.19
2018-11-28T09:21:51.057Z,102319.69
2018-11-28T09:22:51.445Z,102320.44
2018-11-28T09:23:51.838Z,102321.45
2018-11-28T09:24:52.297Z,102322.97
2018-11-28T09:25:52.764Z,102323.98
2018-11-28T09:26:53.501Z,102325.58
2018-11-28T09:27:53.913Z,102327.02
2018-11-28T09:28:02.363Z,102346.00
2018-11-28T09:29:03.797Z,102345.41
2018-11-28T09:30:04.183Z,102345.57
2018-11-28T09:31:04.810Z,102345.58
2018-11-28T09:32:05.349Z,102345.92
2018-11-28T09:33:05.856Z,102346.18
2018-11-28T09:34:06.237Z,102346.23
2018-11-28T09:35:06.536Z,102347.09
2018-11-28T09:36:07.134Z,102347.36
2018-11-28T09:37:07.542Z,102347.69
2018-11-28T09:38:07.879Z,102347.59
2018-11-28T09:39:08.273Z,102348.03
2018-11-28T09:40:08.611Z,102347.51
2018-11-28T09:41:09.002Z,102346.84
2018-11-28T09:42:09.654Z,102346.28
2018-11-28T09:43:10.012Z,102345.77
2018-11-28T09:44:10.680Z,102345.56
2018-11-28T09:45:11.086Z,102344.81
2018-11-28T09:46:11.802Z,102344.33
2018-11-28T09:47:12.448Z,102343.97
2018-11-28T09:48:12.969Z,102343.48
2018-11-28T09:49:13.957Z,102342.92
2018-11-28T09:50:14.414Z,102342.50
2018-11-28T09:51:14.779Z,102342.67
2018-11-28T09:52:15.411Z,102342.36
2018-11-28T09:53:15.998Z,102342.30
2018-11-28T09:54:16.498Z,102342.97
2018-11-28T09:55:17.005Z,102343.13
2018-11-28T09:56:17.354Z,102342.91
2018-11-28T09:57:18.049Z,102342.91
2018-11-28T09:58:18.672Z,102343.00
2018-11-28T09:59:19.441Z,102343.03
2018-11-28T10:00:19.913Z,102343.09
2018-11-28T10:01:20.306Z,102342.70
2018-11-28T10:02:20.801Z,102342.37
2018-11-28T10:03:21.555Z,102341.67
2018-11-28T10:04:22.008Z,102340.67
2018-11-28T10:05:22.493Z,102340.75
2018-11-28T10:06:22.848Z,102340.26
2018-11-28T10:07:23.291Z,102340.36
2018-11-28T10:08:23.749Z,102339.77
2018-11-28T10:09:24.295Z,102339.79
2018-11-28T10:10:23.667Z,102339.19
2018-11-28T10:11:25.199Z,102339.30
2018-11-28T10:12:25.731Z,102339.22
2018-11-28T10:13:26.439Z,102338.70
2018-11-28T10:13:34.778Z,102340.50
2018-11-28T10:14:36.130Z,102339.73
2018-11-28T10:15:36.649Z,102339.16
2018-11-28T10:16:37.157Z,102339.22
2018-11-28T10:17:37.513Z,102338.47
2018-11-28T10:18:38.231Z,102338.22
2018-11-28T10:19:38.623Z,102338.05
2018-11-28T10:20:39.216Z,102337.71
2018-11-28T10:21:39.729Z,102337.38
2018-11-28T10:22:40.142Z,102336.63
2018-11-28T10:23:40.581Z,102335.98
2018-11-28T10:24:40.908Z,102334.70
2018-11-28T10:25:41.275Z,102334.14
2018-11-28T10:26:41.728Z,102333.95
2018-11-28T10:27:42.124Z,102333.88
2018-11-28T10:28:42.673Z,102333.28
2018-11-28T10:29:43.041Z,102332.95
2018-11-28T10:30:43.398Z,102332.38
2018-11-28T10:31:43.789Z,102331.37
2018-11-28T10:32:44.168Z,102330.28
2018-11-28T10:33:45.082Z,102329.30
2018-11-28T10:34:45.444Z,102328.87
2018-11-28T10:35:46.644Z,102328.22
2018-11-28T10:36:45.418Z,102327.39
2018-11-28T10:37:46.960Z,102326.13
2018-11-28T10:38:46.379Z,102325.46
2018-11-28T10:39:47.746Z,102325.36
2018-11-28T10:40:48.132Z,102324.37
2018-11-28T10:41:48.629Z,102323.70
2018-11-28T10:42:49.052Z,102322.78
2018-11-28T10:43:49.510Z,102322.11
2018-11-28T10:44:49.866Z,102321.69
2018-11-28T10:45:50.280Z,102321.01
2018-11-28T10:46:50.817Z,102320.63
2018-11-28T10:47:50.928Z,102319.86
2018-11-28T10:48:51.393Z,102318.94
2018-11-28T10:49:51.909Z,102318.25
2018-11-28T10:50:52.487Z,102317.77
2018-11-28T10:51:53.128Z,102316.77
2018-11-28T10:52:53.474Z,102315.83
2018-11-28T10:53:53.999Z,102315.59
2018-11-28T10:54:53.218Z,102314.92
2018-11-28T10:55:54.658Z,102313.98
2018-11-28T10:56:55.178Z,102313.39
2018-11-28T10:57:55.520Z,102312.66
2018-11-28T10:58:55.906Z,102311.31
2018-11-28T10:59:56.643Z,102310.15
2018-11-28T11:00:04.958Z,102296.80
2018-11-28T11:01:06.335Z,102296.97
2018-11-28T11:02:06.707Z,102296.56
2018-11-28T11:03:07.346Z,102295.72
2018-11-28T11:04:07.845Z,102295.90
2018-11-28T11:05:08.523Z,102296.48
2018-11-28T11:06:08.950Z,102295.96
2018-11-28T11:07:08.247Z,102295.30
2018-11-28T11:08:09.661Z,102295.38
2018-11-28T11:09:10.010Z,102294.71
2018-11-28T11:10:10.360Z,102294.47
2018-11-28T11:11:10.746Z,102293.46
2018-11-28T11:12:11.023Z,102293.55
2018-11-28T11:13:11.402Z,102293.54
2018-11-28T11:14:11.776Z,102293.54
2018-11-28T11:15:12.187Z,102293.80
2018-11-28T11:16:12.730Z,102293.95
2018-11-28T11:17:13.141Z,102293.70